Ashby, Nebraska
Current Conditions -  °F | °C
As of 12:53 AM on Friday 28 Nov 2014 (Local Time) from KAIA Reporting Station
Clear Clear  
Wind Chill: 21°   Ceiling: Unl
Heat Index: 28°   Visibility: 10mi
Dew Point: 24°   Wind: 7mph
Humidity: 85%   Direction: 260°W
Pressure: 29.91"   Gusts: NA
Location:  42.02°N, 101.93°W
Report Text: KAIA 280753Z AUTO 26006KT 10SM CLR M02/M04 A2991 RMK AO2 SLP134 T10221044
Loading
Personal Weather Stations






























Interactive Weather Map New forecast layout! Learn more

10-Day Weather Forecast

Advertisements
Track Severe Weather on mobile